Time;durP1;ratioP1;P1;durP2;ratioP2;P2;SDS_P1;SDS_P2;PMS_P1;PMS_P2;Temp;Humidity;BMP_temperature;BMP_pressure;BME280_temperature;BME280_humidity;BME280_pressure;Samples;Min_cycle;Max_cycle;Signal;HPM_P1;HPM_P2
2021/07/13 00:00:35;;;;;;;2.30;2.10;;;16.10;99.90;;;;;;4963506;28;20122;-78
2021/07/13 00:03:02;;;;;;;2.30;2.10;;;16.20;99.90;;;;;;4971946;28;20275;-78
2021/07/13 00:05:29;;;;;;;2.55;2.35;;;16.20;99.90;;;;;;4966852;28;20035;-78
2021/07/13 00:07:55;;;;;;;3.13;2.83;;;16.20;99.90;;;;;;4968106;28;20080;-79
2021/07/13 00:10:23;;;;;;;3.58;2.90;;;16.20;99.90;;;;;;4971734;28;20094;-78
2021/07/13 00:12:50;;;;;;;2.70;2.50;;;16.20;99.90;;;;;;4971144;28;20095;-78
2021/07/13 00:15:32;;;;;;;2.10;1.90;;;16.20;99.90;;;;;;4969461;28;20041;-78
2021/07/13 00:17:58;;;;;;;2.80;2.55;;;16.20;99.90;;;;;;4959186;28;20046;-78
2021/07/13 00:20:25;;;;;;;3.03;2.25;;;16.10;99.90;;;;;;4965965;28;20398;-79
2021/07/13 00:22:51;;;;;;;3.33;3.03;;;16.10;99.90;;;;;;4950185;28;20045;-77
2021/07/13 00:25:17;;;;;;;2.33;2.20;;;16.10;99.90;;;;;;4963450;28;20039;-79
2021/07/13 00:27:43;;;;;;;2.53;2.33;;;16.00;99.90;;;;;;4964008;28;20035;-77
2021/07/13 00:30:12;;;;;;;2.80;2.60;;;16.00;99.90;;;;;;4966378;28;20516;-77
2021/07/13 00:32:38;;;;;;;2.70;2.50;;;16.00;99.90;;;;;;4959146;28;20042;-78
2021/07/13 00:35:05;;;;;;;3.03;2.72;;;16.00;99.90;;;;;;4959665;28;20035;-78
2021/07/13 00:37:31;;;;;;;5.10;2.70;;;16.00;99.90;;;;;;4964491;28;20054;-78
2021/07/13 00:39:57;;;;;;;2.80;2.60;;;15.90;99.90;;;;;;4959603;28;20516;-77
2021/07/13 00:42:23;;;;;;;2.70;2.50;;;15.90;99.90;;;;;;4963738;28;20089;-79
2021/07/13 00:44:49;;;;;;;2.53;2.33;;;15.90;99.90;;;;;;4966778;28;20026;-78
2021/07/13 00:47:20;;;;;;;4.13;2.53;;;15.90;99.90;;;;;;4966840;28;20038;-78
2021/07/13 00:49:47;;;;;;;2.70;2.45;;;15.90;99.90;;;;;;4970725;28;20122;-78
2021/07/13 00:52:13;;;;;;;2.50;2.30;;;15.80;99.90;;;;;;4972393;28;20043;-78
2021/07/13 00:54:41;;;;;;;2.45;2.25;;;15.80;99.90;;;;;;4971382;28;20023;-78
2021/07/13 00:57:09;;;;;;;2.30;2.10;;;15.80;99.90;;;;;;4968960;28;20031;-78
2021/07/13 00:59:39;;;;;;;2.72;2.53;;;15.70;99.90;;;;;;4964782;28;20035;-78
2021/07/13 01:02:07;;;;;;;2.45;2.25;;;15.70;99.90;;;;;;4968251;28;20069;-78
2021/07/13 01:04:35;;;;;;;2.40;2.20;;;15.60;99.90;;;;;;4963785;28;20035;-79
2021/07/13 01:07:24;;;;;;;2.67;2.45;;;15.60;99.90;;;;;;4968127;28;20039;-78
2021/07/13 01:10:31;;;;;;;2.40;2.20;;;15.60;99.90;;;;;;4968117;28;20070;-79
2021/07/13 01:13:05;;;;;;;3.03;2.25;;;15.50;99.90;;;;;;4964570;28;20035;-78
2021/07/13 01:15:38;;;;;;;4.15;2.80;;;15.50;99.90;;;;;;4971590;28;20675;-78
2021/07/13 01:18:19;;;;;;;3.90;2.67;;;15.40;99.90;;;;;;4968306;28;20393;-78
2021/07/13 01:21:23;;;;;;;5.90;3.13;;;15.40;99.90;;;;;;4971586;28;20647;-78
2021/07/13 01:24:13;;;;;;;3.10;2.80;;;15.40;99.90;;;;;;4964720;28;20042;-78
2021/07/13 01:27:04;;;;;;;3.83;2.67;;;15.40;99.90;;;;;;4961403;28;20111;-77
2021/07/13 01:29:32;;;;;;;2.95;2.65;;;15.40;99.90;;;;;;4963528;28;20240;-78
2021/07/13 01:31:59;;;;;;;2.72;2.53;;;15.40;99.90;;;;;;4965398;28;20034;-78
2021/07/13 01:34:29;;;;;;;3.22;2.92;;;15.40;99.90;;;;;;4964384;28;20050;-78
2021/07/13 01:37:00;;;;;;;2.60;2.40;;;15.40;99.90;;;;;;4963525;28;20038;-78
2021/07/13 01:39:27;;;;;;;3.42;2.58;;;15.40;99.90;;;;;;4963136;28;20110;-78
2021/07/13 01:41:57;;;;;;;2.88;2.47;;;15.40;99.90;;;;;;4953621;28;20489;-78
2021/07/13 01:44:24;;;;;;;2.42;2.22;;;15.40;99.90;;;;;;4964561;28;20136;-78
2021/07/13 01:46:51;;;;;;;3.17;2.20;;;15.40;99.90;;;;;;4961618;28;20035;-78
2021/07/13 01:49:21;;;;;;;2.72;2.50;;;15.40;99.90;;;;;;4962299;28;20030;-78
2021/07/13 01:51:48;;;;;;;2.55;2.35;;;15.40;99.90;;;;;;4966357;28;20037;-77
2021/07/13 01:54:16;;;;;;;4.20;2.22;;;15.30;99.90;;;;;;4965827;28;20039;-78
2021/07/13 01:56:44;;;;;;;3.88;2.42;;;15.30;99.90;;;;;;4947528;28;20047;-77
2021/07/13 01:59:14;;;;;;;3.75;2.70;;;15.30;99.90;;;;;;4965761;28;20061;-79
2021/07/13 02:01:41;;;;;;;2.80;2.58;;;15.30;99.90;;;;;;4963592;28;20705;-79
2021/07/13 02:04:09;;;;;;;2.90;2.70;;;15.20;99.90;;;;;;4970372;28;20030;-78
2021/07/13 02:06:36;;;;;;;3.00;2.80;;;15.20;99.90;;;;;;4967631;28;20031;-78
2021/07/13 02:09:07;;;;;;;2.72;2.53;;;15.20;99.90;;;;;;4967860;28;20488;-78
2021/07/13 02:11:34;;;;;;;2.75;2.55;;;15.20;99.90;;;;;;4962757;28;20082;-78
2021/07/13 02:13:59;;;;;;;2.80;2.50;;;15.10;99.90;;;;;;4965354;28;20085;-78
2021/07/13 02:16:25;;;;;;;2.90;2.70;;;15.10;99.90;;;;;;4973492;28;20090;-78
2021/07/13 02:18:51;;;;;;;4.45;2.90;;;15.10;99.90;;;;;;4969671;28;20051;-78
2021/07/13 02:21:18;;;;;;;3.35;3.05;;;15.10;99.90;;;;;;4966148;28;20134;-78
2021/07/13 02:23:45;;;;;;;4.82;3.03;;;15.00;99.90;;;;;;4966962;28;20035;-78
2021/07/13 02:26:32;;;;;;;2.80;2.42;;;15.00;99.90;;;;;;4973533;28;20093;-78
2021/07/13 02:29:14;;;;;;;2.80;2.60;;;15.00;99.90;;;;;;4971969;28;20035;-78
2021/07/13 02:31:56;;;;;;;2.70;2.50;;;15.00;99.90;;;;;;4971835;28;20031;-78
2021/07/13 02:34:25;;;;;;;2.60;2.40;;;15.00;99.90;;;;;;4963509;28;20489;-78
2021/07/13 02:36:52;;;;;;;3.80;2.40;;;15.00;99.90;;;;;;4971435;28;20058;-78
2021/07/13 02:39:20;;;;;;;3.00;2.70;;;14.90;99.90;;;;;;4972399;28;20126;-79
2021/07/13 02:41:50;;;;;;;2.80;2.60;;;14.90;99.90;;;;;;4970999;28;20072;-78
2021/07/13 02:44:16;;;;;;;2.90;2.70;;;14.80;99.90;;;;;;4935500;28;20090;-79
2021/07/13 02:46:43;;;;;;;3.47;2.80;;;14.80;99.90;;;;;;4969526;28;20086;-79
2021/07/13 02:49:24;;;;;;;2.90;2.65;;;14.80;99.90;;;;;;4969194;28;21020;-78
2021/07/13 02:51:52;;;;;;;3.47;2.97;;;14.80;99.90;;;;;;4974728;28;20022;-78
2021/07/13 02:54:27;;;;;;;3.30;3.00;;;14.80;99.90;;;;;;4953541;28;20027;-78
2021/07/13 02:56:54;;;;;;;2.83;2.63;;;14.80;99.90;;;;;;4972691;28;20035;-78
2021/07/13 02:59:25;;;;;;;2.75;2.55;;;14.80;99.90;;;;;;4967444;28;20306;-78
2021/07/13 03:01:52;;;;;;;2.65;2.45;;;14.80;99.90;;;;;;4970369;28;20035;-77
2021/07/13 03:04:19;;;;;;;2.97;2.70;;;14.80;99.90;;;;;;4974331;28;20074;-78
2021/07/13 03:06:46;;;;;;;4.30;2.83;;;14.90;99.90;;;;;;4967918;28;20059;-78
2021/07/13 03:09:14;;;;;;;4.57;3.05;;;14.90;99.90;;;;;;4960125;28;20049;-78
2021/07/13 03:11:40;;;;;;;2.55;2.35;;;15.00;99.90;;;;;;4966265;28;20035;-78
2021/07/13 03:14:08;;;;;;;3.60;2.53;;;15.00;99.90;;;;;;4969992;28;20042;-78
2021/07/13 03:16:36;;;;;;;2.60;2.40;;;15.00;99.90;;;;;;4965829;28;20486;-78
2021/07/13 03:19:03;;;;;;;3.83;2.72;;;15.00;99.90;;;;;;4966282;28;20027;-77
2021/07/13 03:21:31;;;;;;;2.40;2.20;;;15.00;99.90;;;;;;4969779;28;20027;-78
2021/07/13 03:24:00;;;;;;;3.10;2.40;;;15.00;99.90;;;;;;4970716;28;20486;-78
2021/07/13 03:26:32;;;;;;;3.65;2.22;;;15.00;99.90;;;;;;4966355;28;20035;-78
2021/07/13 03:28:59;;;;;;;2.83;2.63;;;15.00;99.90;;;;;;4967750;28;20043;-78
2021/07/13 03:31:26;;;;;;;3.88;2.40;;;15.00;99.90;;;;;;4953082;28;20113;-78
2021/07/13 03:33:54;;;;;;;2.40;2.20;;;15.00;99.90;;;;;;4974255;28;20074;-78
2021/07/13 03:36:20;;;;;;;3.20;2.90;;;14.90;99.90;;;;;;4968980;28;20045;-78
2021/07/13 03:38:46;;;;;;;3.78;2.83;;;14.90;99.90;;;;;;4966670;28;20027;-78
2021/07/13 03:41:13;;;;;;;3.30;3.00;;;15.00;99.90;;;;;;4966596;28;20035;-78
2021/07/13 03:43:39;;;;;;;2.97;2.72;;;14.90;99.90;;;;;;4969897;28;20030;-78
2021/07/13 03:46:05;;;;;;;4.22;2.72;;;15.00;99.90;;;;;;4966411;28;20035;-78
2021/07/13 03:48:31;;;;;;;2.70;2.20;;;15.00;99.90;;;;;;4971771;28;20052;-78
2021/07/13 03:50:57;;;;;;;4.55;2.92;;;15.00;99.90;;;;;;4968241;28;20375;-78
2021/07/13 03:53:23;;;;;;;3.30;3.00;;;15.00;99.90;;;;;;4969605;28;20048;-78
2021/07/13 03:55:48;;;;;;;3.17;2.80;;;15.10;99.90;;;;;;4968366;28;20045;-78
2021/07/13 03:58:14;;;;;;;5.50;2.53;;;15.10;99.90;;;;;;4968984;28;20043;-78
2021/07/13 04:00:40;;;;;;;3.00;2.70;;;15.20;99.90;;;;;;4959715;28;20035;-78
2021/07/13 04:03:06;;;;;;;2.55;2.35;;;15.20;99.90;;;;;;4971112;28;20023;-78
2021/07/13 04:05:31;;;;;;;5.45;2.53;;;15.20;99.90;;;;;;4968700;28;20062;-78
2021/07/13 04:07:57;;;;;;;3.22;2.55;;;15.20;99.90;;;;;;4970549;28;20031;-79
2021/07/13 04:10:23;;;;;;;2.80;2.60;;;15.20;99.90;;;;;;4970040;28;20457;-78
2021/07/13 04:12:49;;;;;;;4.15;2.90;;;15.20;99.90;;;;;;4966125;28;20036;-77
2021/07/13 04:15:15;;;;;;;3.95;2.85;;;15.20;99.90;;;;;;4969659;28;20058;-78
2021/07/13 04:17:41;;;;;;;3.22;2.92;;;15.30;99.90;;;;;;4965954;28;20047;-79
2021/07/13 04:20:09;;;;;;;2.75;2.45;;;15.30;99.90;;;;;;4974823;28;20561;-78
2021/07/13 04:22:34;;;;;;;3.10;2.80;;;15.40;99.90;;;;;;4975745;28;20032;-78
2021/07/13 04:25:00;;;;;;;3.40;3.10;;;15.40;99.90;;;;;;4975620;28;20085;-78
2021/07/13 04:27:26;;;;;;;3.03;2.83;;;15.60;99.90;;;;;;4974811;28;20038;-78
2021/07/13 04:29:52;;;;;;;3.58;3.05;;;15.60;99.90;;;;;;4983640;28;20124;-78
2021/07/13 04:32:18;;;;;;;3.00;2.67;;;15.70;99.90;;;;;;4977241;28;20038;-78
2021/07/13 04:34:44;;;;;;;2.67;2.47;;;15.70;99.90;;;;;;4983125;28;20497;-78
2021/07/13 04:37:09;;;;;;;3.17;2.90;;;15.70;99.90;;;;;;4973362;28;20085;-78
2021/07/13 04:39:35;;;;;;;2.88;2.67;;;15.80;99.90;;;;;;4970485;28;20031;-78
2021/07/13 04:42:01;;;;;;;3.55;3.20;;;15.80;99.90;;;;;;4974840;28;20030;-78
2021/07/13 04:44:27;;;;;;;3.40;3.10;;;15.90;99.90;;;;;;4980413;28;20050;-78
2021/07/13 04:46:54;;;;;;;2.85;2.50;;;15.90;99.90;;;;;;4946028;28;20153;-78
2021/07/13 04:49:20;;;;;;;4.90;3.05;;;16.10;99.90;;;;;;4952013;28;20051;-78
2021/07/13 04:51:46;;;;;;;2.92;2.72;;;16.00;99.90;;;;;;4974760;28;20122;-77
2021/07/13 04:54:11;;;;;;;3.28;2.83;;;16.00;99.90;;;;;;4966367;28;20525;-78
2021/07/13 04:56:37;;;;;;;4.30;3.33;;;16.00;99.90;;;;;;4966260;28;20031;-78
2021/07/13 04:59:03;;;;;;;4.85;3.70;;;16.10;99.90;;;;;;4966291;28;20031;-78
2021/07/13 05:01:29;;;;;;;3.60;3.30;;;16.00;99.90;;;;;;4964281;28;20086;-78
2021/07/13 05:03:55;;;;;;;5.43;3.13;;;16.00;99.90;;;;;;4974971;28;20027;-78
2021/07/13 05:06:21;;;;;;;4.03;3.03;;;16.10;99.90;;;;;;4978693;28;20078;-78
2021/07/13 05:08:47;;;;;;;3.40;3.10;;;16.10;99.90;;;;;;4976433;28;20035;-77
2021/07/13 05:11:13;;;;;;;3.20;2.70;;;16.20;99.90;;;;;;4975108;28;20085;-78
2021/07/13 05:13:38;;;;;;;3.83;3.45;;;16.30;99.90;;;;;;4970667;28;20046;-78
2021/07/13 05:16:04;;;;;;;3.50;3.20;;;16.40;99.90;;;;;;4967656;28;20122;-78
2021/07/13 05:18:30;;;;;;;3.15;2.92;;;16.40;99.90;;;;;;4974088;28;20069;-77
2021/07/13 05:20:59;;;;;;;4.13;2.90;;;16.40;99.90;;;;;;4954227;28;20035;-78
2021/07/13 05:23:25;;;;;;;3.50;2.33;;;16.40;99.90;;;;;;4966466;28;20038;-78
2021/07/13 05:25:51;;;;;;;2.13;1.92;;;16.40;99.90;;;;;;4965798;28;20509;-78
2021/07/13 05:28:17;;;;;;;2.85;2.17;;;16.40;99.90;;;;;;4967033;28;20046;-78
2021/07/13 05:30:44;;;;;;;3.00;2.70;;;16.50;99.90;;;;;;4973490;28;20027;-78
2021/07/13 05:33:11;;;;;;;2.80;2.60;;;16.60;99.90;;;;;;4981516;28;20153;-78
2021/07/13 05:35:37;;;;;;;3.42;2.85;;;16.70;99.90;;;;;;4986973;28;20030;-78
2021/07/13 05:38:04;;;;;;;3.17;2.88;;;16.70;99.90;;;;;;4981948;28;20077;-78
2021/07/13 05:40:30;;;;;;;2.78;2.58;;;16.80;99.90;;;;;;4984265;28;20038;-78
2021/07/13 05:42:55;;;;;;;2.78;2.58;;;16.80;99.90;;;;;;4983092;28;20044;-78
2021/07/13 05:45:22;;;;;;;3.15;2.95;;;16.90;99.90;;;;;;4983490;28;20049;-78
2021/07/13 05:47:48;;;;;;;4.32;2.90;;;16.90;99.90;;;;;;4980299;28;20031;-79
2021/07/13 05:50:14;;;;;;;4.43;2.33;;;17.00;99.90;;;;;;4989226;28;20087;-78
2021/07/13 05:52:40;;;;;;;3.53;2.85;;;17.10;99.90;;;;;;4971819;28;20037;-78
2021/07/13 05:55:06;;;;;;;2.30;2.10;;;17.10;99.90;;;;;;4976037;28;20098;-78
2021/07/13 05:57:32;;;;;;;2.70;2.47;;;17.10;99.90;;;;;;4988409;28;20027;-78
2021/07/13 05:59:58;;;;;;;3.78;2.70;;;17.10;99.90;;;;;;4989993;28;20081;-78
2021/07/13 06:02:24;;;;;;;2.80;2.60;;;17.20;99.90;;;;;;4976392;28;20573;-78
2021/07/13 06:04:50;;;;;;;2.67;2.47;;;17.30;99.90;;;;;;4974150;28;20045;-79
2021/07/13 06:07:16;;;;;;;2.80;2.60;;;17.30;99.90;;;;;;4980248;28;20027;-79
2021/07/13 06:09:42;;;;;;;2.90;2.60;;;17.30;99.90;;;;;;4947943;28;20485;-78
2021/07/13 06:12:08;;;;;;;3.15;2.85;;;17.30;99.90;;;;;;4961236;28;20085;-78
2021/07/13 06:14:36;;;;;;;2.38;2.17;;;17.40;99.90;;;;;;4979462;28;20031;-78
2021/07/13 06:17:04;;;;;;;2.35;2.15;;;17.50;99.90;;;;;;4956768;29;20045;-78
2021/07/13 06:19:30;;;;;;;2.70;2.50;;;17.60;99.90;;;;;;4963174;28;20023;-78
2021/07/13 06:21:55;;;;;;;2.92;2.53;;;17.80;99.90;;;;;;4974207;28;20049;-78
2021/07/13 06:24:21;;;;;;;3.30;2.45;;;17.90;99.90;;;;;;4977129;28;20023;-79
2021/07/13 06:26:47;;;;;;;2.45;2.25;;;18.10;99.90;;;;;;4980648;28;20039;-78
2021/07/13 06:29:12;;;;;;;2.78;2.50;;;18.20;99.90;;;;;;4971321;28;20042;-78
2021/07/13 06:31:38;;;;;;;3.10;2.80;;;18.30;99.90;;;;;;4943697;28;20039;-78
2021/07/13 06:34:04;;;;;;;2.78;2.58;;;18.40;99.90;;;;;;4960110;28;20097;-78
2021/07/13 06:36:30;;;;;;;2.50;2.30;;;18.80;99.90;;;;;;4976813;28;20066;-78
2021/07/13 06:38:55;;;;;;;2.47;2.05;;;19.30;99.90;;;;;;4974002;28;20023;-78
2021/07/13 06:41:21;;;;;;;3.15;2.30;;;19.90;99.90;;;;;;4976882;28;20513;-78
2021/07/13 06:43:47;;;;;;;2.80;2.10;;;20.50;99.90;;;;;;4975421;28;20037;-78
2021/07/13 06:46:13;;;;;;;2.67;2.47;;;20.90;99.90;;;;;;4971159;28;20045;-78
2021/07/13 06:48:38;;;;;;;2.10;2.00;;;21.00;99.90;;;;;;4971970;28;20059;-79
2021/07/13 06:51:04;;;;;;;1.90;1.80;;;21.10;99.90;;;;;;4969677;28;20554;-79
2021/07/13 06:53:30;;;;;;;2.80;2.55;;;21.20;99.90;;;;;;4973205;28;20516;-79
2021/07/13 06:55:56;;;;;;;1.85;1.75;;;21.30;99.90;;;;;;4967301;28;20030;-79
2021/07/13 06:58:21;;;;;;;4.00;2.75;;;21.30;99.90;;;;;;4968242;28;20764;-79
2021/07/13 07:00:47;;;;;;;2.33;2.15;;;21.40;99.90;;;;;;4966422;28;20023;-78
2021/07/13 07:03:13;;;;;;;3.42;2.58;;;21.80;99.90;;;;;;4975824;28;20031;-78
2021/07/13 07:05:40;;;;;;;1.80;1.70;;;22.40;99.90;;;;;;4974254;28;20037;-78
2021/07/13 07:08:07;;;;;;;1.70;1.60;;;23.10;99.90;;;;;;4975882;28;20043;-79
2021/07/13 07:10:33;;;;;;;2.13;1.92;;;23.70;99.90;;;;;;4968829;28;20142;-78
2021/07/13 07:12:59;;;;;;;2.28;2.08;;;24.20;99.90;;;;;;4973577;28;20505;-79
2021/07/13 07:15:24;;;;;;;2.60;2.00;;;24.50;99.90;;;;;;4970124;28;20082;-78
2021/07/13 07:17:52;;;;;;;2.00;1.90;;;24.70;99.90;;;;;;4978924;28;20037;-79
2021/07/13 07:20:20;;;;;;;2.22;2.08;;;24.80;99.90;;;;;;4978814;28;20039;-79
2021/07/13 07:22:46;;;;;;;2.63;2.38;;;24.80;99.90;;;;;;4976020;28;20090;-79
2021/07/13 07:25:13;;;;;;;2.42;2.22;;;24.80;99.90;;;;;;4975379;28;20054;-78
2021/07/13 07:27:39;;;;;;;3.05;2.00;;;24.90;99.90;;;;;;4978284;28;20043;-79
2021/07/13 07:30:06;;;;;;;2.28;2.03;;;25.10;99.90;;;;;;4979884;28;20078;-79
2021/07/13 07:32:37;;;;;;;2.45;2.25;;;25.20;99.90;;;;;;4977546;28;20103;-79
2021/07/13 07:35:05;;;;;;;2.78;2.47;;;25.10;99.90;;;;;;4985670;28;20103;-79
2021/07/13 07:37:32;;;;;;;2.53;2.33;;;24.90;99.90;;;;;;4980632;28;20027;-79
2021/07/13 07:40:00;;;;;;;2.08;1.98;;;24.70;99.90;;;;;;4969262;28;20031;-79
2021/07/13 07:42:26;;;;;;;2.97;2.70;;;24.50;99.90;;;;;;4962113;28;20041;-78
2021/07/13 07:44:52;;;;;;;2.38;2.17;;;24.40;99.90;;;;;;4970068;28;20459;-79
2021/07/13 07:47:18;;;;;;;2.47;2.28;;;24.20;99.90;;;;;;4956096;28;20086;-78
2021/07/13 07:49:43;;;;;;;2.95;2.75;;;24.20;99.90;;;;;;4966807;28;20476;-77
2021/07/13 07:52:10;;;;;;;2.63;2.42;;;24.00;99.90;;;;;;4966793;28;20066;-80
2021/07/13 07:54:36;;;;;;;3.42;2.80;;;23.90;99.90;;;;;;4965563;28;20027;-77
2021/07/13 07:57:02;;;;;;;4.00;3.00;;;23.80;99.90;;;;;;4972577;28;20079;-78
2021/07/13 07:59:27;;;;;;;3.78;3.38;;;23.60;99.90;;;;;;4950911;28;20032;-78
2021/07/13 08:01:53;;;;;;;3.70;2.97;;;23.40;99.90;;;;;;4967767;28;20027;-78
2021/07/13 08:04:19;;;;;;;3.72;2.70;;;23.30;99.90;;;;;;4951303;28;20525;-78
2021/07/13 08:06:44;;;;;;;3.28;2.95;;;23.20;99.90;;;;;;4966710;28;20027;-78
2021/07/13 08:09:10;;;;;;;3.72;3.30;;;23.20;99.90;;;;;;4966603;28;20433;-78
2021/07/13 08:11:37;;;;;;;3.28;2.97;;;23.30;99.90;;;;;;4972729;28;20053;-78
2021/07/13 08:14:05;;;;;;;3.80;2.67;;;23.50;99.90;;;;;;4967384;28;20051;-78
2021/07/13 08:16:37;;;;;;;2.92;2.58;;;23.60;99.90;;;;;;4968521;28;20074;-77
2021/07/13 08:19:07;;;;;;;3.03;2.83;;;23.90;99.90;;;;;;4964901;28;20098;-78
2021/07/13 08:21:34;;;;;;;4.05;2.75;;;24.20;99.90;;;;;;4972079;28;20034;-77
2021/07/13 08:24:00;;;;;;;3.40;3.10;;;24.40;99.90;;;;;;4964876;28;20027;-78
2021/07/13 08:26:26;;;;;;;3.15;2.80;;;24.70;99.90;;;;;;4968653;28;20161;-78
2021/07/13 08:28:52;;;;;;;4.88;2.88;;;25.00;99.90;;;;;;4963107;28;20097;-78
2021/07/13 08:31:18;;;;;;;3.20;2.78;;;25.20;99.90;;;;;;4967525;28;20121;-78
2021/07/13 08:33:44;;;;;;;4.30;2.90;;;25.30;99.90;;;;;;4971631;28;20043;-78
2021/07/13 08:36:10;;;;;;;3.78;3.05;;;25.50;99.90;;;;;;4967929;28;20035;-78
2021/07/13 08:38:35;;;;;;;2.85;2.65;;;25.70;99.90;;;;;;4970682;28;20120;-79
2021/07/13 08:41:02;;;;;;;3.30;3.00;;;26.00;99.90;;;;;;4970937;28;20054;-78
2021/07/13 08:43:28;;;;;;;2.97;2.72;;;26.10;99.90;;;;;;4968955;28;20506;-78
2021/07/13 08:45:54;;;;;;;3.55;3.20;;;26.10;99.90;;;;;;4963941;28;20052;-78
2021/07/13 08:48:24;;;;;;;3.92;3.38;;;26.20;99.90;;;;;;4976267;28;20030;-79
2021/07/13 08:50:55;;;;;;;3.22;2.92;;;26.20;99.90;;;;;;4966833;28;20042;-78
2021/07/13 08:53:21;;;;;;;3.38;3.08;;;26.30;99.90;;;;;;4975595;28;20043;-78
2021/07/13 08:55:47;;;;;;;3.83;3.00;;;26.40;99.90;;;;;;4974807;28;20504;-78
2021/07/13 08:58:16;;;;;;;3.60;3.20;;;26.40;99.90;;;;;;4975214;28;20026;-78
2021/07/13 09:00:42;;;;;;;3.22;2.92;;;26.50;99.90;;;;;;4976814;28;20053;-78
2021/07/13 09:03:12;;;;;;;4.00;3.40;;;26.50;99.90;;;;;;4981642;28;20106;-79
2021/07/13 09:05:42;;;;;;;4.45;3.58;;;26.60;99.90;;;;;;4974338;28;20030;-77
2021/07/13 09:08:28;;;;;;;4.00;3.60;;;26.80;99.90;;;;;;4973079;28;20031;-78
2021/07/13 09:11:03;;;;;;;3.38;3.08;;;26.90;99.90;;;;;;4945909;28;20042;-78
2021/07/13 09:13:34;;;;;;;3.70;3.20;;;26.90;99.90;;;;;;4958869;28;20031;-78
2021/07/13 09:16:01;;;;;;;3.65;3.35;;;26.80;99.90;;;;;;4968476;28;20413;-79
2021/07/13 09:18:38;;;;;;;4.30;3.35;;;26.70;99.90;;;;;;4951315;28;20031;-78
2021/07/13 09:21:11;;;;;;;4.07;3.25;;;26.50;99.90;;;;;;4964138;28;20359;-78
2021/07/13 09:23:59;;;;;;;4.32;3.60;;;26.50;99.90;;;;;;4967671;28;20090;-78
2021/07/13 09:26:45;;;;;;;3.50;3.20;;;26.60;99.90;;;;;;4964141;28;20074;-78
2021/07/13 09:29:42;;;;;;;3.80;3.40;;;26.70;99.90;;;;;;4968355;28;20034;-78
2021/07/13 09:32:26;;;;;;;3.85;3.55;;;26.80;99.90;;;;;;4968178;28;20040;-77
2021/07/13 09:34:52;;;;;;;4.82;4.25;;;26.90;99.90;;;;;;4962679;28;20389;-78
2021/07/13 09:37:23;;;;;;;4.85;4.18;;;26.70;99.90;;;;;;4964451;28;20045;-78
2021/07/13 09:39:59;;;;;;;4.50;4.00;;;26.60;99.90;;;;;;4964138;28;20106;-78
2021/07/13 09:42:27;;;;;;;5.00;4.50;;;26.20;99.90;;;;;;4970911;28;20494;-77
2021/07/13 09:45:13;;;;;;;4.53;4.13;;;25.90;99.90;;;;;;4966934;28;20034;-78
2021/07/13 09:47:38;;;;;;;5.97;4.32;;;25.80;99.90;;;;;;4966206;28;20051;-77
2021/07/13 09:50:07;;;;;;;6.00;4.50;;;25.90;99.90;;;;;;4968615;28;20050;-79
2021/07/13 09:52:33;;;;;;;4.65;4.22;;;25.70;99.90;;;;;;4965400;28;20035;-78
2021/07/13 09:55:00;;;;;;;4.40;3.95;;;25.70;99.90;;;;;;4946531;29;20089;-78
2021/07/13 09:57:29;;;;;;;4.63;4.22;;;25.90;99.90;;;;;;4966750;28;20062;-78
2021/07/13 09:59:56;;;;;;;4.93;4.28;;;26.00;99.90;;;;;;4958365;28;20039;-78
2021/07/13 10:02:25;;;;;;;7.55;4.18;;;26.10;99.90;;;;;;4967071;28;20028;-77
2021/07/13 10:04:54;;;;;;;4.97;4.47;;;26.20;99.90;;;;;;4973341;28;20784;-78
2021/07/13 10:07:21;;;;;;;5.03;4.53;;;26.20;99.90;;;;;;4975842;28;20393;-77
2021/07/13 10:09:51;;;;;;;5.38;4.72;;;26.20;99.90;;;;;;4967659;28;20031;-78
2021/07/13 10:12:22;;;;;;;5.53;4.05;;;26.20;99.90;;;;;;4969512;28;20055;-78
2021/07/13 10:14:54;;;;;;;6.95;4.47;;;26.40;99.90;;;;;;4967509;28;20486;-78
2021/07/13 10:17:23;;;;;;;4.68;3.97;;;26.30;99.90;;;;;;4969956;28;20046;-78
2021/07/13 10:19:51;;;;;;;5.43;4.57;;;26.30;99.90;;;;;;4960136;28;20035;-78
2021/07/13 10:22:19;;;;;;;6.68;4.68;;;26.30;99.90;;;;;;4962196;28;20159;-78
2021/07/13 10:24:53;;;;;;;6.07;4.90;;;26.30;99.90;;;;;;4949741;28;20083;-79
2021/07/13 10:27:33;;;;;;;5.20;4.70;;;26.50;99.90;;;;;;4967343;28;20023;-78
2021/07/13 10:30:02;;;;;;;4.78;4.38;;;26.60;99.90;;;;;;4964751;28;20039;-77
2021/07/13 10:32:28;;;;;;;4.43;4.03;;;26.70;99.90;;;;;;4968149;28;20045;-78
2021/07/13 10:35:04;;;;;;;8.30;4.72;;;26.90;99.90;;;;;;4963066;28;20027;-78
2021/07/13 10:37:40;;;;;;;6.30;4.63;;;27.00;99.90;;;;;;4975386;28;20045;-78
2021/07/13 10:40:16;;;;;;;5.65;5.05;;;26.90;99.90;;;;;;4967258;28;20066;-78
2021/07/13 10:42:41;;;;;;;4.95;4.45;;;26.90;99.90;;;;;;4970584;28;20475;-78
2021/07/13 10:45:23;;;;;;;5.25;4.75;;;26.80;99.90;;;;;;4978682;28;20070;-78
2021/07/13 10:47:58;;;;;;;6.65;5.07;;;26.80;99.90;;;;;;4967185;28;20035;-78
2021/07/13 10:50:27;;;;;;;6.85;5.68;;;26.80;99.90;;;;;;4989915;28;20085;-77
2021/07/13 10:53:07;;;;;;;5.68;4.85;;;26.60;99.90;;;;;;4983326;28;20028;-79
2021/07/13 10:55:33;;;;;;;5.72;4.55;;;26.30;99.90;;;;;;4991399;28;20059;-77
2021/07/13 10:58:14;;;;;;;5.25;4.75;;;26.30;99.90;;;;;;4994323;28;20030;-77
2021/07/13 11:00:49;;;;;;;5.82;4.65;;;26.30;99.90;;;;;;4978393;28;20039;-78
2021/07/13 11:05:57;;;;;;;5.68;5.05;;;26.50;99.90;;;;;;4977629;28;20261;-79
2021/07/13 11:11:22;;;;;;;5.90;5.15;;;26.90;99.90;;;;;;4977288;28;20039;-79
2021/07/13 11:14:06;;;;;;;5.93;5.32;;;26.80;99.90;;;;;;4963117;28;20027;-77
2021/07/13 11:16:34;;;;;;;8.65;4.63;;;26.90;99.90;;;;;;4970360;28;20034;-79
2021/07/13 11:19:03;;;;;;;5.32;4.82;;;27.10;99.90;;;;;;4969214;28;20031;-77
2021/07/13 11:21:35;;;;;;;5.45;4.80;;;27.10;99.90;;;;;;4976549;28;20031;-78
2021/07/13 11:24:07;;;;;;;5.18;4.68;;;27.10;99.90;;;;;;4974072;28;20034;-79
2021/07/13 11:26:34;;;;;;;5.07;4.45;;;27.30;99.90;;;;;;4972803;28;20027;-78
2021/07/13 11:29:05;;;;;;;4.95;4.43;;;27.40;99.90;;;;;;4977927;28;20027;-77
2021/07/13 11:31:35;;;;;;;5.50;4.85;;;27.30;99.90;;;;;;4974948;28;20122;-78
2021/07/13 11:34:15;;;;;;;4.88;4.47;;;27.20;99.90;;;;;;4983873;28;20050;-79
2021/07/13 11:36:42;;;;;;;5.22;4.47;;;27.30;99.90;;;;;;4976539;28;20049;-77
2021/07/13 11:39:13;;;;;;;5.75;5.05;;;27.40;99.90;;;;;;4975531;28;20035;-76
2021/07/13 11:41:41;;;;;;;5.45;4.95;;;27.40;99.90;;;;;;4972231;28;20034;-79
2021/07/13 11:44:09;;;;;;;4.90;4.30;;;27.40;99.90;;;;;;4971335;28;20119;-76
2021/07/13 11:46:41;;;;;;;5.60;4.32;;;27.40;99.90;;;;;;4972676;28;20061;-77
2021/07/13 11:49:14;;;;;;;6.35;5.10;;;27.40;99.90;;;;;;4971223;28;20121;-77
2021/07/13 11:52:00;;;;;;;5.43;4.93;;;27.50;99.90;;;;;;4964531;28;20057;-79
2021/07/13 11:54:37;;;;;;;6.10;4.70;;;27.60;99.90;;;;;;4977921;28;20062;-79
2021/07/13 11:57:05;;;;;;;6.05;5.10;;;27.50;99.90;;;;;;4976436;28;20035;-78
2021/07/13 11:59:32;;;;;;;5.90;5.30;;;27.40;99.90;;;;;;4972084;28;20031;-79
2021/07/13 12:02:00;;;;;;;5.97;4.70;;;27.40;99.90;;;;;;4977127;28;20042;-79
2021/07/13 12:04:28;;;;;;;5.25;4.55;;;27.40;99.90;;;;;;4970342;28;20032;-79
2021/07/13 12:06:59;;;;;;;4.60;4.10;;;27.40;99.90;;;;;;4969386;28;20045;-78
2021/07/13 12:09:34;;;;;;;5.13;4.63;;;27.40;99.90;;;;;;4965790;28;20054;-77
2021/07/13 12:12:06;;;;;;;5.70;4.72;;;27.40;99.90;;;;;;4976510;28;20580;-77
2021/07/13 12:14:31;;;;;;;5.93;5.20;;;27.40;99.90;;;;;;4975006;28;20074;-77
2021/07/13 12:16:58;;;;;;;5.20;4.70;;;27.40;99.90;;;;;;4974924;28;20031;-79
2021/07/13 12:19:27;;;;;;;5.35;4.55;;;27.20;99.90;;;;;;4967054;28;20126;-77
2021/07/13 12:21:55;;;;;;;9.02;5.32;;;27.10;99.90;;;;;;4972170;28;20442;-78
2021/07/13 12:24:31;;;;;;;5.55;4.80;;;27.10;99.90;;;;;;4964540;28;20102;-79
2021/07/13 12:26:59;;;;;;;5.07;4.57;;;27.10;99.90;;;;;;4967007;28;20070;-78
2021/07/13 12:29:35;;;;;;;5.78;5.20;;;27.10;99.90;;;;;;4980635;28;20433;-77
2021/07/13 12:32:02;;;;;;;5.65;5.05;;;27.00;99.90;;;;;;4954238;28;20597;-77
2021/07/13 12:34:30;;;;;;;5.10;4.60;;;26.90;99.90;;;;;;4956496;28;20037;-78
2021/07/13 12:37:04;;;;;;;5.20;4.70;;;26.90;99.90;;;;;;4974835;28;20113;-78
2021/07/13 12:39:31;;;;;;;9.93;4.68;;;26.80;99.90;;;;;;4973518;28;20073;-78
2021/07/13 12:42:00;;;;;;;5.13;4.68;;;26.70;99.90;;;;;;4978568;28;20037;-79
2021/07/13 12:44:51;;;;;;;5.15;4.65;;;26.60;99.90;;;;;;4979214;28;20030;-79
2021/07/13 12:47:20;;;;;;;4.95;4.45;;;26.50;99.90;;;;;;4972074;28;20046;-78
2021/07/13 12:50:12;;;;;;;5.63;5.00;;;26.60;99.90;;;;;;4974866;28;20031;-79
2021/07/13 12:52:42;;;;;;;6.18;5.32;;;26.80;99.90;;;;;;4973887;28;20106;-78
2021/07/13 12:55:25;;;;;;;5.30;4.70;;;26.90;99.90;;;;;;4956989;28;20039;-77
2021/07/13 12:57:51;;;;;;;5.25;4.75;;;26.90;99.90;;;;;;4968788;28;20094;-78
2021/07/13 13:00:28;;;;;;;5.60;4.97;;;26.80;99.90;;;;;;4977827;28;20059;-79
2021/07/13 13:03:09;;;;;;;6.47;4.95;;;26.70;99.90;;;;;;4972507;28;20054;-78